Terminal Aerodrome Forecast
Issued by NWS Jackson, KY

Home | Current Version | Previous Version | Text Only | Print | Product List | Glossary On
Versions: 1 2 3 4 5 6 7 8 9 10 11 12 13 14 15 16 17 18 19 20
414
FTUS43 KJKL 141134
TAFJKL
TAF
KJKL 141134Z 1412/1512 VRB03KT P6SM SCT015
     FM141300 VRB03KT P6SM BKN015
     FM141500 VRB03KT P6SM BKN020
     FM141600 VRB04KT P6SM SCT090=

USA.gov is the U.S. government's official web portal to all federal, state and local government web resources and services.